createdAt,value
2019-02-19T00:02:25.757Z,5.35
2019-02-19T00:04:58.140Z,5.47
2019-02-19T00:07:30.551Z,4.97
2019-02-19T00:10:02.914Z,4.17
2019-02-19T00:12:35.903Z,5.50
2019-02-19T00:15:08.872Z,5.97
2019-02-19T00:17:41.304Z,4.60
2019-02-19T00:20:13.828Z,6.30
2019-02-19T00:22:46.333Z,4.80
2019-02-19T00:25:19.092Z,5.80
2019-02-19T00:27:51.470Z,5.58
2019-02-19T00:30:23.958Z,6.27
2019-02-19T00:32:56.814Z,5.08
2019-02-19T00:35:29.224Z,5.03
2019-02-19T00:38:01.733Z,5.75
2019-02-19T00:40:34.194Z,4.60
2019-02-19T00:43:06.725Z,5.65
2019-02-19T00:45:39.110Z,4.12
2019-02-19T00:48:11.254Z,4.40
2019-02-19T00:50:43.681Z,5.12
2019-02-19T00:53:16.100Z,4.50
2019-02-19T00:55:48.471Z,4.35
2019-02-19T00:58:21.126Z,4.13
2019-02-19T01:00:53.915Z,4.75
2019-02-19T01:03:26.842Z,4.28
2019-02-19T01:05:59.237Z,4.28
2019-02-19T01:08:32.670Z,4.58
2019-02-19T01:11:14.239Z,5.90
2019-02-19T01:13:46.552Z,4.60
2019-02-19T01:16:19.394Z,4.10
2019-02-19T01:18:51.869Z,4.05
2019-02-19T01:21:24.285Z,5.22
2019-02-19T01:23:59.119Z,4.62
2019-02-19T01:26:31.279Z,5.13
2019-02-19T01:29:04.537Z,4.65
2019-02-19T01:34:08.018Z,3.05
2019-02-19T01:36:40.991Z,4.00
2019-02-19T01:39:14.142Z,3.95
2019-02-19T01:41:46.552Z,5.20
2019-02-19T01:44:19.617Z,4.72
2019-02-19T01:46:51.931Z,3.70
2019-02-19T01:49:24.302Z,4.58
2019-02-19T01:51:56.701Z,3.98
2019-02-19T01:54:30.046Z,5.58
2019-02-19T01:59:35.419Z,3.95
2019-02-19T02:02:07.534Z,5.00
2019-02-19T02:04:41.248Z,5.67
2019-02-19T02:07:13.596Z,4.43
2019-02-19T02:09:46.016Z,6.28
2019-02-19T02:12:18.779Z,4.72
2019-02-19T02:14:51.310Z,4.40
2019-02-19T02:17:23.493Z,5.27
2019-02-19T02:19:57.692Z,4.30
2019-02-19T02:22:32.645Z,4.17
2019-02-19T02:25:04.859Z,4.93
2019-02-19T02:27:37.282Z,4.72
2019-02-19T02:30:09.859Z,3.98
2019-02-19T02:32:42.241Z,4.05
2019-02-19T02:35:14.638Z,4.35
2019-02-19T02:37:46.743Z,4.73
2019-02-19T02:40:18.848Z,4.40
2019-02-19T02:42:51.034Z,4.03
2019-02-19T02:45:23.425Z,4.28
2019-02-19T02:47:55.955Z,4.28
2019-02-19T02:50:28.830Z,5.37
2019-02-19T02:53:01.260Z,4.08
2019-02-19T02:55:33.736Z,3.98
2019-02-19T02:58:06.633Z,4.10
2019-02-19T03:00:38.988Z,4.05
2019-02-19T03:03:11.200Z,4.00
2019-02-19T03:06:12.952Z,3.58
2019-02-19T03:08:45.044Z,3.23
2019-02-19T03:11:17.576Z,3.60
2019-02-19T03:13:50.320Z,3.42
2019-02-19T03:16:22.955Z,3.85
2019-02-19T03:18:55.423Z,3.47
2019-02-19T03:21:27.787Z,3.58
2019-02-19T03:24:00.326Z,4.30
2019-02-19T03:26:32.747Z,3.02
2019-02-19T03:29:05.164Z,4.67
2019-02-19T03:31:37.514Z,3.80
2019-02-19T03:34:09.897Z,3.42
2019-02-19T03:36:42.053Z,4.70
2019-02-19T03:39:14.569Z,3.03
2019-02-19T03:41:46.927Z,3.05
2019-02-19T03:44:19.032Z,3.37
2019-02-19T03:46:51.103Z,4.17
2019-02-19T03:49:23.196Z,3.80
2019-02-19T03:51:55.639Z,3.33
2019-02-19T03:54:28.756Z,2.45
2019-02-19T03:57:01.284Z,3.57
2019-02-19T03:59:33.873Z,2.90
2019-02-19T04:02:06.442Z,4.17
2019-02-19T04:04:38.818Z,2.70
2019-02-19T04:07:10.970Z,2.20
2019-02-19T04:09:43.068Z,2.70
2019-02-19T04:12:15.519Z,3.55
2019-02-19T04:14:47.936Z,3.25
2019-02-19T04:17:20.283Z,3.65
2019-02-19T04:19:52.703Z,4.80
2019-02-19T04:22:25.173Z,3.58
2019-02-19T04:24:57.574Z,3.62
2019-02-19T04:27:30.041Z,3.72
2019-02-19T04:30:02.465Z,3.55
2019-02-19T04:32:34.804Z,3.50
2019-02-19T04:35:07.267Z,3.33
2019-02-19T04:37:39.633Z,2.05
2019-02-19T04:40:12.001Z,3.20
2019-02-19T04:42:44.347Z,3.02
2019-02-19T04:45:16.456Z,3.07
2019-02-19T04:47:48.896Z,3.70
2019-02-19T04:50:21.275Z,4.12
2019-02-19T04:52:54.197Z,3.70
2019-02-19T04:55:26.567Z,3.05
2019-02-19T04:57:58.966Z,3.52
2019-02-19T05:00:31.347Z,2.80
2019-02-19T05:03:03.689Z,3.35
2019-02-19T05:05:36.400Z,4.08
2019-02-19T05:08:09.591Z,3.30
2019-02-19T05:10:42.372Z,4.25
2019-02-19T05:13:14.736Z,3.75
2019-02-19T05:15:46.943Z,4.27
2019-02-19T05:18:19.319Z,3.92
2019-02-19T05:20:51.469Z,5.67
2019-02-19T05:23:24.032Z,4.03
2019-02-19T05:25:57.299Z,3.45
2019-02-19T05:31:00.449Z,3.42
2019-02-19T05:33:32.793Z,4.22
2019-02-19T05:36:04.988Z,3.87
2019-02-19T05:38:37.372Z,3.45
2019-02-19T05:41:10.267Z,3.70
2019-02-19T05:43:42.614Z,4.15
2019-02-19T05:46:14.712Z,3.50
2019-02-19T05:48:47.255Z,3.50
2019-02-19T05:51:20.319Z,3.72
2019-02-19T05:53:52.611Z,3.70
2019-02-19T05:56:25.175Z,4.42
2019-02-19T05:59:16.662Z,4.55
2019-02-19T06:01:48.811Z,3.63
2019-02-19T06:04:21.222Z,4.30
2019-02-19T06:06:53.629Z,4.67
2019-02-19T06:09:26.063Z,4.58
2019-02-19T06:11:58.633Z,3.45
2019-02-19T06:14:30.974Z,4.05
2019-02-19T06:17:03.225Z,4.57
2019-02-19T06:19:35.622Z,4.35
2019-02-19T06:22:07.749Z,4.93
2019-02-19T06:24:40.119Z,4.50
2019-02-19T06:27:12.205Z,5.07
2019-02-19T06:29:44.555Z,4.55
2019-02-19T06:32:16.681Z,3.77
2019-02-19T06:34:49.429Z,3.50
2019-02-19T06:37:21.531Z,4.00
2019-02-19T06:39:54.314Z,4.25
2019-02-19T06:42:27.031Z,5.10
2019-02-19T06:44:59.456Z,4.00
2019-02-19T06:47:31.839Z,3.67
2019-02-19T06:50:03.929Z,3.63
2019-02-19T06:52:36.572Z,4.80
2019-02-19T06:55:09.284Z,3.72
2019-02-19T06:57:41.624Z,4.37
2019-02-19T07:00:14.115Z,4.62
2019-02-19T07:03:00.859Z,4.95
2019-02-19T07:05:32.969Z,4.07
2019-02-19T07:08:05.398Z,2.60
2019-02-19T07:10:37.835Z,4.78
2019-02-19T07:13:10.247Z,4.45
2019-02-19T07:15:43.046Z,4.03
2019-02-19T07:18:15.482Z,4.17
2019-02-19T07:20:48.044Z,4.03
2019-02-19T07:23:20.425Z,3.40
2019-02-19T07:25:52.987Z,4.53
2019-02-19T07:28:25.387Z,4.58
2019-02-19T07:30:57.807Z,4.72
2019-02-19T07:33:30.319Z,4.30
2019-02-19T07:36:02.766Z,5.75
2019-02-19T07:38:35.132Z,4.83
2019-02-19T07:41:07.253Z,5.63
2019-02-19T07:43:39.761Z,7.17
2019-02-19T07:46:12.253Z,5.85
2019-02-19T07:48:44.656Z,6.42
2019-02-19T07:51:16.994Z,4.90
2019-02-19T07:53:49.826Z,5.50
2019-02-19T07:56:22.182Z,6.20
2019-02-19T07:58:54.359Z,5.83
2019-02-19T08:01:26.691Z,5.47
2019-02-19T08:03:58.802Z,5.77
2019-02-19T08:06:31.140Z,4.40
2019-02-19T08:09:04.779Z,5.28
2019-02-19T08:11:37.242Z,6.03
2019-02-19T08:14:09.605Z,6.08
2019-02-19T08:16:42.078Z,5.77
2019-02-19T08:19:14.797Z,7.17
2019-02-19T08:21:47.193Z,6.40
2019-02-19T08:24:19.368Z,6.83
2019-02-19T08:26:51.458Z,5.43
2019-02-19T08:29:24.281Z,4.03
2019-02-19T08:31:56.643Z,7.15
2019-02-19T08:34:28.754Z,6.57
2019-02-19T08:37:01.276Z,6.43
2019-02-19T08:39:33.630Z,6.80
2019-02-19T08:42:05.707Z,6.60
2019-02-19T08:44:38.143Z,7.50
2019-02-19T08:47:10.566Z,6.90
2019-02-19T08:49:42.711Z,8.70
2019-02-19T08:52:15.132Z,7.70
2019-02-19T08:54:47.647Z,7.83
2019-02-19T08:57:20.022Z,7.58
2019-02-19T08:59:52.121Z,8.43
2019-02-19T09:02:24.247Z,7.87
2019-02-19T09:04:56.412Z,8.33
2019-02-19T09:07:28.676Z,8.77
2019-02-19T09:10:01.398Z,8.80
2019-02-19T09:12:33.745Z,9.18
2019-02-19T09:15:06.644Z,7.93
2019-02-19T09:17:38.710Z,9.23
2019-02-19T09:20:11.822Z,7.97
2019-02-19T09:22:44.168Z,7.55
2019-02-19T09:25:16.317Z,7.70
2019-02-19T09:27:48.537Z,7.73
2019-02-19T09:30:21.175Z,8.45
2019-02-19T09:32:53.532Z,8.33
2019-02-19T09:35:25.648Z,8.63
2019-02-19T09:37:58.099Z,8.77
2019-02-19T09:40:30.530Z,8.50
2019-02-19T09:43:02.928Z,7.80
2019-02-19T09:45:35.391Z,7.83
2019-02-19T09:48:08.070Z,9.25
2019-02-19T09:50:40.488Z,7.92
2019-02-19T09:53:12.845Z,7.75
2019-02-19T09:55:44.949Z,7.80
2019-02-19T09:58:17.067Z,8.20
2019-02-19T10:00:49.374Z,7.63
2019-02-19T10:03:21.960Z,7.53
2019-02-19T10:05:54.312Z,7.83
2019-02-19T10:08:26.966Z,8.27
2019-02-19T10:10:59.509Z,7.83
2019-02-19T10:13:32.229Z,5.78
2019-02-19T10:16:04.605Z,6.92
2019-02-19T10:18:37.135Z,8.00
2019-02-19T10:21:09.805Z,8.13
2019-02-19T10:23:42.279Z,8.20
2019-02-19T10:26:14.763Z,7.15
2019-02-19T10:28:47.534Z,7.78
2019-02-19T10:31:19.891Z,6.97
2019-02-19T10:33:52.233Z,5.07
2019-02-19T10:36:24.591Z,7.83
2019-02-19T10:38:56.822Z,7.50
2019-02-19T10:41:29.214Z,7.95
2019-02-19T10:44:01.594Z,7.40
2019-02-19T10:46:33.998Z,7.43
2019-02-19T10:49:06.351Z,7.67
2019-02-19T10:51:38.442Z,7.27
2019-02-19T10:54:10.508Z,8.47
2019-02-19T10:56:42.601Z,7.83
2019-02-19T10:59:14.699Z,5.40
2019-02-19T11:01:46.763Z,7.47
2019-02-19T11:04:19.403Z,7.08
2019-02-19T11:06:51.594Z,6.80
2019-02-19T11:09:24.046Z,6.97
2019-02-19T11:11:58.130Z,7.42
2019-02-19T11:14:31.463Z,6.22
2019-02-19T11:17:03.825Z,6.17
2019-02-19T11:19:36.213Z,5.60
2019-02-19T11:22:08.570Z,5.47
2019-02-19T11:24:40.940Z,5.58
2019-02-19T11:27:13.343Z,5.15
2019-02-19T11:29:45.724Z,4.78
2019-02-19T11:32:17.778Z,5.00
2019-02-19T11:34:50.352Z,4.43
2019-02-19T11:37:22.691Z,4.17
2019-02-19T11:39:55.487Z,4.35
2019-02-19T11:42:28.144Z,4.60
2019-02-19T11:45:01.028Z,4.00
2019-02-19T11:47:33.478Z,3.75
2019-02-19T11:50:06.106Z,4.58
2019-02-19T11:52:38.450Z,4.30
2019-02-19T11:55:12.673Z,4.30
2019-02-19T11:57:45.670Z,4.50
2019-02-19T12:00:21.225Z,3.92
2019-02-19T12:02:54.237Z,4.37
2019-02-19T12:05:26.601Z,4.00
2019-02-19T12:07:58.708Z,4.47
2019-02-19T12:10:30.806Z,4.13
2019-02-19T12:13:03.242Z,4.80
2019-02-19T12:15:35.704Z,4.60
2019-02-19T12:18:08.071Z,4.17
2019-02-19T12:20:40.155Z,4.23
2019-02-19T12:23:12.391Z,4.67
2019-02-19T12:25:44.766Z,4.58
2019-02-19T12:28:17.177Z,4.62
2019-02-19T12:30:49.818Z,4.90
2019-02-19T12:33:22.259Z,4.95
2019-02-19T12:35:54.730Z,4.80
2019-02-19T12:38:27.119Z,4.65
2019-02-19T12:40:59.954Z,5.25
2019-02-19T12:43:32.867Z,5.33
2019-02-19T12:46:05.317Z,4.22
2019-02-19T12:48:37.658Z,4.12
2019-02-19T12:51:09.930Z,4.67
2019-02-19T12:53:42.403Z,3.85
2019-02-19T12:56:15.195Z,5.40
2019-02-19T12:58:47.870Z,5.37
2019-02-19T13:01:20.245Z,5.12
2019-02-19T13:03:52.626Z,4.85
2019-02-19T13:06:25.319Z,4.90
2019-02-19T13:08:57.826Z,5.08
2019-02-19T13:11:30.187Z,4.47
2019-02-19T13:14:02.723Z,5.50
2019-02-19T13:16:35.111Z,5.42
2019-02-19T13:19:07.465Z,5.55
2019-02-19T13:21:39.850Z,5.40
2019-02-19T13:24:12.222Z,3.87
2019-02-19T13:26:44.907Z,5.15
2019-02-19T13:29:17.413Z,5.60
2019-02-19T13:31:49.812Z,4.97
2019-02-19T13:34:21.886Z,5.00
2019-02-19T13:36:54.032Z,5.00
2019-02-19T13:39:26.203Z,4.57
2019-02-19T13:41:59.380Z,5.62
2019-02-19T13:47:03.282Z,4.90
2019-02-19T13:49:36.150Z,5.80
2019-02-19T13:52:22.409Z,6.03
2019-02-19T13:54:54.296Z,5.67
2019-02-19T13:57:27.082Z,6.28
2019-02-19T13:59:59.868Z,6.05
2019-02-19T14:02:32.416Z,5.97
2019-02-19T14:05:04.787Z,5.70
2019-02-19T14:07:37.576Z,5.80
2019-02-19T14:10:09.949Z,5.62
2019-02-19T14:12:42.036Z,5.70
2019-02-19T14:15:25.958Z,5.87
2019-02-19T14:17:59.534Z,6.10
2019-02-19T14:20:50.284Z,6.15
2019-02-19T14:23:40.484Z,5.87
2019-02-19T14:26:34.755Z,5.40
2019-02-19T14:29:29.027Z,5.62
2019-02-19T14:32:23.354Z,5.12
2019-02-19T14:35:21.170Z,4.87
2019-02-19T14:38:15.475Z,4.85
2019-02-19T14:41:05.659Z,5.58
2019-02-19T14:44:13.259Z,6.08
2019-02-19T14:47:03.697Z,5.37
2019-02-19T14:49:48.361Z,5.00
2019-02-19T14:52:55.316Z,5.17
2019-02-19T14:56:00.347Z,5.70
2019-02-19T14:58:52.804Z,5.87
2019-02-19T15:01:47.422Z,5.80
2019-02-19T15:04:38.921Z,5.70
2019-02-19T15:07:30.433Z,5.50
2019-02-19T15:10:24.748Z,6.22
2019-02-19T15:13:13.672Z,5.60
2019-02-19T15:16:05.292Z,6.60
2019-02-19T15:19:06.059Z,6.37
2019-02-19T15:21:50.498Z,5.95
2019-02-19T15:24:48.121Z,5.20
2019-02-19T15:27:48.897Z,5.33
2019-02-19T15:30:42.995Z,5.40
2019-02-19T15:33:40.810Z,5.90
2019-02-19T15:36:41.589Z,5.87
2019-02-19T15:39:42.687Z,6.25
2019-02-19T15:42:39.682Z,6.80
2019-02-19T15:45:31.224Z,5.40
2019-02-19T15:48:12.026Z,6.20
2019-02-19T15:51:02.608Z,5.95
2019-02-19T15:54:09.566Z,5.42
2019-02-19T15:57:13.318Z,5.30
2019-02-19T16:00:16.563Z,6.03
2019-02-19T16:03:03.543Z,6.00
2019-02-19T16:05:59.559Z,5.83
2019-02-19T16:08:41.408Z,6.65
2019-02-19T16:11:31.820Z,5.83
2019-02-19T16:14:24.309Z,6.37
2019-02-19T16:17:28.229Z,5.85
2019-02-19T16:20:19.513Z,5.83
2019-02-19T16:23:17.613Z,5.40
2019-02-19T16:26:12.171Z,5.62
2019-02-19T16:29:02.671Z,5.55
2019-02-19T16:31:57.919Z,5.67
2019-02-19T16:34:38.495Z,5.35
2019-02-19T16:37:19.661Z,5.45
2019-02-19T16:40:03.247Z,6.33
2019-02-19T16:42:53.044Z,5.12
2019-02-19T16:45:42.666Z,5.75
2019-02-19T16:48:25.254Z,5.20
2019-02-19T16:51:08.200Z,5.25
2019-02-19T16:53:50.702Z,6.03
2019-02-19T16:56:51.050Z,5.15
2019-02-19T16:59:33.033Z,5.33
2019-02-19T17:02:13.835Z,5.05
2019-02-19T17:05:19.730Z,5.37
2019-02-19T17:08:16.662Z,5.47
2019-02-19T17:10:59.068Z,5.10
2019-02-19T17:13:57.874Z,4.97
2019-02-19T17:16:42.006Z,5.25
2019-02-19T17:19:32.333Z,5.03
2019-02-19T17:22:33.151Z,4.60
2019-02-19T17:25:28.200Z,5.00
2019-02-19T17:28:22.592Z,4.65
2019-02-19T17:31:21.230Z,5.30
2019-02-19T17:34:06.828Z,5.12
2019-02-19T17:36:58.634Z,5.05
2019-02-19T17:39:53.228Z,5.60
2019-02-19T17:42:40.482Z,5.70
2019-02-19T17:45:31.971Z,5.78
2019-02-19T17:48:38.595Z,5.87
2019-02-19T17:51:32.976Z,5.70
2019-02-19T17:54:28.158Z,5.20
2019-02-19T17:57:09.656Z,5.47
2019-02-19T18:00:01.357Z,5.37
2019-02-19T18:03:09.393Z,5.92
2019-02-19T18:05:54.975Z,5.35
2019-02-19T18:08:33.595Z,5.03
2019-02-19T18:11:44.571Z,5.17
2019-02-19T18:14:43.208Z,5.30
2019-02-19T18:17:36.695Z,5.87
2019-02-19T18:20:09.468Z,4.97
2019-02-19T18:22:42.193Z,5.25
2019-02-19T18:25:15.737Z,4.58
2019-02-19T18:27:48.977Z,5.47
2019-02-19T18:30:21.359Z,4.78
2019-02-19T18:32:54.013Z,4.63
2019-02-19T18:35:27.951Z,4.95
2019-02-19T18:38:01.726Z,5.70
2019-02-19T18:40:34.453Z,5.55
2019-02-19T18:43:06.659Z,5.63
2019-02-19T18:45:41.449Z,5.35
2019-02-19T18:48:14.412Z,5.10
2019-02-19T18:50:46.939Z,5.10
2019-02-19T18:53:19.296Z,4.78
2019-02-19T18:55:51.418Z,5.03
2019-02-19T18:58:23.588Z,5.20
2019-02-19T19:00:57.711Z,4.92
2019-02-19T19:03:30.711Z,4.80
2019-02-19T19:06:03.630Z,4.90
2019-02-19T19:08:35.984Z,5.05
2019-02-19T19:11:08.090Z,5.77
2019-02-19T19:13:40.169Z,5.20
2019-02-19T19:16:13.679Z,5.90
2019-02-19T19:18:47.417Z,5.20
2019-02-19T19:21:20.791Z,5.67
2019-02-19T19:23:53.712Z,6.90
2019-02-19T19:26:25.846Z,5.50
2019-02-19T19:28:59.235Z,6.37
2019-02-19T19:31:34.095Z,5.80
2019-02-19T19:34:06.239Z,5.73
2019-02-19T19:36:38.431Z,5.77
2019-02-19T19:39:10.821Z,5.70
2019-02-19T19:41:43.174Z,5.85
2019-02-19T19:44:15.269Z,6.27
2019-02-19T19:46:47.402Z,5.10
2019-02-19T19:49:19.567Z,5.17
2019-02-19T19:51:52.029Z,6.17
2019-02-19T19:54:24.987Z,6.67
2019-02-19T19:56:58.527Z,6.47
2019-02-19T19:59:30.823Z,6.73
2019-02-19T20:02:05.320Z,6.25
2019-02-19T20:04:40.164Z,6.07
2019-02-19T20:07:13.375Z,5.87
2019-02-19T20:09:46.337Z,6.80
2019-02-19T20:12:18.486Z,6.33
2019-02-19T20:14:52.985Z,6.53
2019-02-19T20:17:26.661Z,6.67
2019-02-19T20:19:59.817Z,7.00
2019-02-19T20:22:34.172Z,7.00
2019-02-19T20:25:07.033Z,7.07
2019-02-19T20:27:41.758Z,6.47
2019-02-19T20:30:13.986Z,6.73
2019-02-19T20:32:46.808Z,7.20
2019-02-19T20:35:19.203Z,7.47
2019-02-19T20:37:54.103Z,7.07
2019-02-19T20:40:25.200Z,6.63
2019-02-19T20:42:58.737Z,7.50
2019-02-19T20:45:31.269Z,7.77
2019-02-19T20:48:04.091Z,6.90
2019-02-19T20:50:37.400Z,6.80
2019-02-19T20:53:10.587Z,7.08
2019-02-19T20:55:44.565Z,7.67
2019-02-19T20:58:17.319Z,8.03
2019-02-19T21:00:50.700Z,7.35
2019-02-19T21:05:54.230Z,5.08
2019-02-19T21:08:27.003Z,7.42
2019-02-19T21:10:59.524Z,7.75
2019-02-19T21:13:32.107Z,7.80
2019-02-19T21:16:04.601Z,7.17
2019-02-19T21:18:37.121Z,7.67
2019-02-19T21:21:09.857Z,7.20
2019-02-19T21:23:43.609Z,7.83
2019-02-19T21:26:16.715Z,8.18
2019-02-19T21:28:49.486Z,7.50
2019-02-19T21:31:22.334Z,7.70
2019-02-19T21:33:56.584Z,7.45
2019-02-19T21:36:29.149Z,7.37
2019-02-19T21:39:02.504Z,7.08
2019-02-19T21:44:06.719Z,5.45
2019-02-19T21:46:41.240Z,6.78
2019-02-19T21:49:13.614Z,7.67
2019-02-19T21:51:54.018Z,7.87
2019-02-19T21:54:22.111Z,7.60
2019-02-19T21:56:54.943Z,7.62
2019-02-19T21:59:27.400Z,6.97
2019-02-19T22:01:59.814Z,7.05
2019-02-19T22:04:35.066Z,6.40
2019-02-19T22:07:10.027Z,7.70
2019-02-19T22:09:42.457Z,7.67
2019-02-19T22:12:15.331Z,7.58
2019-02-19T22:14:48.821Z,6.37
2019-02-19T22:17:21.111Z,7.07
2019-02-19T22:20:02.713Z,6.55
2019-02-19T22:22:32.875Z,6.70
2019-02-19T22:25:05.539Z,6.90
2019-02-19T22:27:39.405Z,6.23
2019-02-19T22:30:14.109Z,6.43
2019-02-19T22:32:49.327Z,7.70
2019-02-19T22:35:21.474Z,6.73
2019-02-19T22:37:53.950Z,6.20
2019-02-19T22:40:26.367Z,7.05
2019-02-19T22:42:58.811Z,6.80
2019-02-19T22:45:31.398Z,6.83
2019-02-19T22:48:05.919Z,5.83
2019-02-19T22:50:38.771Z,6.40
2019-02-19T22:53:29.057Z,6.63
2019-02-19T22:56:14.915Z,5.57
2019-02-19T22:58:49.885Z,5.77
2019-02-19T23:01:35.618Z,5.93
2019-02-19T23:04:07.745Z,6.03
2019-02-19T23:06:40.690Z,5.90
2019-02-19T23:09:13.340Z,6.65
2019-02-19T23:11:46.552Z,5.15
2019-02-19T23:14:21.445Z,6.17
2019-02-19T23:16:53.541Z,6.67
2019-02-19T23:19:25.751Z,5.40
2019-02-19T23:21:59.577Z,6.17
2019-02-19T23:24:33.797Z,7.13
2019-02-19T23:27:06.293Z,7.67
2019-02-19T23:32:09.799Z,3.50
2019-02-19T23:34:43.134Z,5.83
2019-02-19T23:37:31.700Z,5.93
2019-02-19T23:40:04.136Z,6.77
2019-02-19T23:42:36.493Z,6.47
2019-02-19T23:45:10.093Z,7.58
2019-02-19T23:50:19.406Z,3.60
2019-02-19T23:52:52.622Z,5.87
2019-02-19T23:55:25.817Z,5.63
2019-02-19T23:57:57.917Z,5.73
